Portada
METAR-TAF:

METAR-TAF

Aeroports :

Wunstorf, Alemanya

latitud: 52-27N, longitud: 009-26E, altitud: 57 m

Observació

L'informe es va fer fa 19 minuts, a les 20:20 UTC
Vent 4 kt del Sud/Sud-Est
Temperatura 27°C
Humitat 74%
Pressió 1011 hPa
Visibilitat: 4200 m

METAR: ETNW 182020Z AUTO 16004KT 4200 // ////// 27/22 Q1011 ///

Hora: 22:39 (20:39 UTC)

Pronòstic

L'informe es va fer fa 16 hores i 39 minuts, a les 04:00 UTC
Pronòstic vàlid del 18 a les 05 UTC al 19 a les 05 UTC
Vent 5 kt del Oest/Nord-Oest
Visibilitat 10 km o més
Cel clar
Probabilitat 30%
l' 18 a les 12 UTC al 18 a les 20 UTC
Vent 15 kt del Oest/Nord-Oest amb ràfegues de 40 kt
Visibilitat: 3000 m
Núvols disperses a una alçada de 2000 ft
Cel ennuvolat a una alçada de 4000 ft, Cumulonimbus.
tempesta, pluja, calamarsa

TAF: ETNW 180400Z 1805/1905 30005KT 9999 NSW SKC PROB30 1812/1820 30015G40KT 3000 TSRAGR SCT020 BKN040CB BY ETGL

Observacions i pronòstics meteorològics de més de 4000 aeroports (METAR i TAF).

Les estacions disponibles són els punts grocs i vermells al mapa.

Posi el ratolí al punt desitjat per veure el nom de l'estació.

Feu clic per veure les observacions i els pronòstics meteorològics.

Per canviar el mapa: feu clic els botons verds amb una creu de color negre per apropar; al botó verd amb un guió per allunyar la imatge; o en les fletxes verdes per a mapes adjacents.


METAR-TAF: